Saturday, May 26, 2018, 8:13 AM EDT

KOFP, Hanover County Municipal

Location: Ashland, VA, United States Lat: 37.7
Local Time: 8:13 AM EDT (12:13 GMT) Lon: -77.433
Time Zone: US/Eastern Elev: 203 ft

Show me the last for .
Show Decoded

2018-05-26 07:54 METAR KOFP 261154Z AUTO 21009G16KT 10SM CLR 24/20 A2993 RMK AO2 SLP133 T02390200
                 10239 20217 58000 =
2018-05-26 06:54 METAR KOFP 261054Z AUTO 20007KT 10SM CLR 23/19 A2994 RMK AO2 SLP135 T02280194 =
2018-05-26 05:54 METAR KOFP 260954Z AUTO 19005KT 10SM CLR 22/19 A2993 RMK AO2 SLP132 T02220194 =
2018-05-26 04:54 METAR KOFP 260854Z AUTO 20006KT 10SM CLR 22/20 A2993 RMK AO2 SLP133 T02220200
                 55004 =
2018-05-26 03:54 METAR KOFP 260754Z AUTO 20006KT 10SM CLR 23/20 A2993 RMK AO2 SLP132 T02280200 =
2018-05-26 02:54 METAR KOFP 260654Z AUTO 21006KT 10SM CLR 23/19 A2993 RMK AO2 SLP134 T02330194 =
2018-05-26 01:54 METAR KOFP 260554Z AUTO 19006KT 10SM CLR 23/19 A2994 RMK AO2 SLP137 T02330194
                 10272 20233 58007 =
2018-05-26 00:54 METAR KOFP 260454Z AUTO 19005KT 10SM CLR 24/19 A2996 RMK AO2 SLP142 T02390189
                 402940150 =
2018-05-25 23:54 METAR KOFP 260354Z AUTO 20006KT 10SM CLR 24/18 A2996 RMK AO2 SLP143 T02390183 =
2018-05-25 22:54 METAR KOFP 260254Z AUTO 18005KT 10SM CLR 24/18 A2996 RMK AO2 SLP144 T02440183
                 53004 =
2018-05-25 21:54 METAR KOFP 260154Z AUTO 19006KT 10SM CLR 25/18 A2996 RMK AO2 SLP143 T02500178 =
2018-05-25 20:54 METAR KOFP 260054Z AUTO 17006KT 10SM CLR 25/18 A2995 RMK AO2 SLP140 T02500183 =
2018-05-25 19:54 METAR KOFP 252354Z AUTO 18010KT 10SM CLR 27/18 A2995 RMK AO2 SLP141 T02720178
                 10294 20272 56008 =
2018-05-25 18:54 METAR KOFP 252254Z AUTO 19007KT 10SM CLR 28/18 A2995 RMK AO2 SLP142 T02830178 =
2018-05-25 17:54 METAR KOFP 252154Z AUTO 22009KT 10SM CLR 29/18 A2997 RMK AO2 SLP146 T02890178 =
2018-05-25 16:54 METAR KOFP 252054Z AUTO 19010KT 10SM BKN049 BKN065 29/18 A2998 RMK AO2 SLP149
                 T02940183 56022 =
2018-05-25 15:54 METAR KOFP 251954Z AUTO 17011KT 10SM SCT048 28/18 A3000 RMK AO2 SLP155 T02830183
                 =
2018-05-25 14:54 METAR KOFP 251854Z AUTO 17007KT 10SM FEW042 SCT055 28/19 A3002 RMK AO2 SLP162
                 T02830189 =
2018-05-25 13:54 METAR KOFP 251754Z AUTO 23008G17KT 10SM FEW041 FEW050 29/19 A3004 RMK AO2 SLP172
                 T02890189 10289 20206 58021 =
2018-05-25 12:54 METAR KOFP 251654Z AUTO 20011KT 10SM SCT039 27/18 A3007 RMK AO2 SLP179 T02720183
                 =
2018-05-25 11:54 METAR KOFP 251554Z AUTO 19011KT 10SM SCT036 SCT044 BKN055 27/19 A3009 RMK AO2
                 SLP188 T02720189 =
2018-05-25 10:54 METAR KOFP 251454Z AUTO 20006KT 10SM BKN031 BKN038 26/19 A3011 RMK AO2 SLP193
                 T02610189 58008 =
2018-05-25 09:54 METAR KOFP 251354Z AUTO 25009KT 10SM CLR 26/19 A3012 RMK AO2 SLP197 T02610189 =
2018-05-25 08:54 METAR KOFP 251254Z AUTO 23006KT 10SM CLR 24/19 A3013 RMK AO2 SLP201 T02390189 =

Support USWX by starting your Amazon purchase here.